createdAt,value
2023-06-21T00:00:20.062Z,14.20
2023-06-21T00:03:09.211Z,12.33
2023-06-21T00:05:39.419Z,10.00
2023-06-21T00:08:06.777Z,10.23
2023-06-21T00:10:34.974Z,13.30
2023-06-21T00:13:02.289Z,8.23
2023-06-21T00:15:29.569Z,8.13
2023-06-21T00:17:56.547Z,9.18
2023-06-21T00:20:23.867Z,7.55
2023-06-21T00:22:57.390Z,8.65
2023-06-21T00:25:25.459Z,7.82
2023-06-21T00:27:52.331Z,8.33
2023-06-21T00:30:19.788Z,10.82
2023-06-21T00:32:46.757Z,9.75
2023-06-21T00:35:14.987Z,10.00
2023-06-21T00:37:41.831Z,8.00
2023-06-21T00:40:13.557Z,14.03
2023-06-21T00:42:41.249Z,11.63
2023-06-21T00:45:09.882Z,7.90
2023-06-21T00:47:37.624Z,11.68
2023-06-21T00:50:05.381Z,11.02
2023-06-21T00:52:33.384Z,15.37
2023-06-21T00:55:00.653Z,11.02
2023-06-21T00:57:27.585Z,14.98
2023-06-21T00:59:54.881Z,11.05
2023-06-21T01:02:21.778Z,13.00
2023-06-21T01:04:50.730Z,18.70
2023-06-21T01:07:36.622Z,13.82
2023-06-21T01:10:15.580Z,18.25
2023-06-21T01:12:45.525Z,19.77
2023-06-21T01:15:16.716Z,20.95
2023-06-21T01:17:45.355Z,17.07
2023-06-21T01:20:20.383Z,18.55
2023-06-21T01:22:55.342Z,15.40
2023-06-21T01:25:25.800Z,15.15
2023-06-21T01:28:12.902Z,16.15
2023-06-21T01:30:40.656Z,17.63
2023-06-21T01:33:08.617Z,15.10
2023-06-21T01:35:36.332Z,20.70
2023-06-21T01:38:03.649Z,15.68
2023-06-21T01:40:30.623Z,14.35
2023-06-21T01:42:57.980Z,16.10
2023-06-21T01:45:26.232Z,16.00
2023-06-21T01:47:53.905Z,16.98
2023-06-21T01:50:21.074Z,19.83
2023-06-21T01:52:48.997Z,12.75
2023-06-21T01:55:15.884Z,17.53
2023-06-21T01:57:43.149Z,17.83
2023-06-21T02:00:18.177Z,16.10
2023-06-21T02:03:04.609Z,15.18
2023-06-21T02:05:34.344Z,18.55
2023-06-21T02:08:02.133Z,13.97
2023-06-21T02:13:11.823Z,10.68
2023-06-21T02:15:39.320Z,11.10
2023-06-21T02:18:06.560Z,12.50
2023-06-21T02:20:33.577Z,9.03
2023-06-21T02:23:00.809Z,12.70
2023-06-21T02:25:28.823Z,15.00
2023-06-21T02:27:56.046Z,11.85
2023-06-21T02:30:23.492Z,12.02
2023-06-21T02:32:50.717Z,11.63
2023-06-21T02:35:17.621Z,16.35
2023-06-21T02:37:45.275Z,20.88
2023-06-21T02:40:12.488Z,23.08
2023-06-21T02:42:43.822Z,23.02
2023-06-21T02:45:12.007Z,19.10
2023-06-21T02:47:39.376Z,19.35
2023-06-21T02:50:07.279Z,15.50
2023-06-21T02:52:35.634Z,13.38
2023-06-21T02:55:04.262Z,18.25
2023-06-21T02:57:31.943Z,12.67
2023-06-21T03:00:00.721Z,13.93
2023-06-21T03:02:35.136Z,11.15
2023-06-21T03:05:02.606Z,12.73
2023-06-21T03:07:29.802Z,9.75
2023-06-21T03:09:56.768Z,9.50
2023-06-21T03:12:24.269Z,14.57
2023-06-21T03:14:51.806Z,13.00
2023-06-21T03:17:19.431Z,15.43
2023-06-21T03:19:46.936Z,14.98
2023-06-21T03:22:16.720Z,15.97
2023-06-21T03:24:43.817Z,15.93
2023-06-21T03:27:11.348Z,15.88
2023-06-21T03:29:38.412Z,13.75
2023-06-21T03:32:06.888Z,14.45
2023-06-21T03:34:33.814Z,16.57
2023-06-21T03:37:01.243Z,13.25
2023-06-21T03:39:31.153Z,17.45
2023-06-21T03:41:58.427Z,15.50
2023-06-21T03:44:25.702Z,21.33
2023-06-21T03:46:53.018Z,16.53
2023-06-21T03:49:23.369Z,16.58
2023-06-21T03:51:50.669Z,20.50
2023-06-21T03:54:17.578Z,17.13
2023-06-21T03:56:45.951Z,17.80
2023-06-21T03:59:13.083Z,17.60
2023-06-21T04:01:40.445Z,15.27
2023-06-21T04:04:09.774Z,19.48
2023-06-21T04:06:39.993Z,16.40
2023-06-21T04:09:07.041Z,20.50
2023-06-21T04:11:35.712Z,17.83
2023-06-21T04:14:02.696Z,15.77
2023-06-21T04:16:31.611Z,12.85
2023-06-21T04:18:58.517Z,21.20
2023-06-21T04:21:25.772Z,16.00
2023-06-21T04:23:52.770Z,17.03
2023-06-21T04:26:20.004Z,15.43
2023-06-21T04:28:49.408Z,19.35
2023-06-21T04:31:16.697Z,14.18
2023-06-21T04:33:43.592Z,15.00
2023-06-21T04:36:10.802Z,15.53
2023-06-21T04:38:39.085Z,18.50
2023-06-21T04:41:06.286Z,14.25
2023-06-21T04:43:33.194Z,13.77
2023-06-21T04:46:01.399Z,15.73
2023-06-21T04:48:28.804Z,17.20
2023-06-21T04:50:56.436Z,16.05
2023-06-21T04:53:29.967Z,19.30
2023-06-21T04:55:58.744Z,14.23
2023-06-21T04:58:27.563Z,13.02
2023-06-21T05:00:55.233Z,13.87
2023-06-21T05:03:22.264Z,14.73
2023-06-21T05:05:50.015Z,17.67
2023-06-21T05:08:16.929Z,13.63
2023-06-21T05:10:44.175Z,14.05
2023-06-21T05:13:11.264Z,20.00
2023-06-21T05:15:38.525Z,16.48
2023-06-21T05:18:06.950Z,17.15
2023-06-21T05:20:34.573Z,15.13
2023-06-21T05:23:01.509Z,16.98
2023-06-21T05:25:28.769Z,15.07
2023-06-21T05:27:55.730Z,18.92
2023-06-21T05:30:22.966Z,15.38
2023-06-21T05:32:49.914Z,18.63
2023-06-21T05:35:17.250Z,17.65
2023-06-21T05:37:44.213Z,15.37
2023-06-21T05:40:13.030Z,13.30
2023-06-21T05:42:39.924Z,17.00
2023-06-21T05:45:09.206Z,16.17
2023-06-21T05:47:36.137Z,17.52
2023-06-21T05:50:04.348Z,15.37
2023-06-21T05:52:31.222Z,14.70
2023-06-21T05:54:58.492Z,14.35
2023-06-21T05:57:27.165Z,13.45
2023-06-21T05:59:55.094Z,13.82
2023-06-21T06:02:22.103Z,16.90
2023-06-21T06:04:49.600Z,18.60
2023-06-21T06:07:16.563Z,17.27
2023-06-21T06:09:43.778Z,14.90
2023-06-21T06:12:10.795Z,16.17
2023-06-21T06:14:38.064Z,16.77
2023-06-21T06:17:10.990Z,17.20
2023-06-21T06:19:38.311Z,18.45
2023-06-21T06:22:05.313Z,14.27
2023-06-21T06:24:32.588Z,15.45
2023-06-21T06:26:59.655Z,11.40
2023-06-21T06:29:26.934Z,11.80
2023-06-21T06:31:54.012Z,12.45
2023-06-21T06:34:21.319Z,19.77
2023-06-21T06:36:59.436Z,14.52
2023-06-21T06:39:35.379Z,10.40
2023-06-21T06:42:02.244Z,14.32
2023-06-21T06:44:30.503Z,11.40
2023-06-21T06:46:57.529Z,17.33
2023-06-21T06:49:24.814Z,13.50
2023-06-21T06:51:51.737Z,12.60
2023-06-21T06:54:19.292Z,12.82
2023-06-21T06:56:46.126Z,11.93
2023-06-21T06:59:13.395Z,11.75
2023-06-21T07:01:40.522Z,12.40
2023-06-21T07:04:07.798Z,14.20
2023-06-21T07:06:34.855Z,13.73
2023-06-21T07:09:04.031Z,13.27
2023-06-21T07:11:30.989Z,15.63
2023-06-21T07:13:58.443Z,13.07
2023-06-21T07:16:25.541Z,11.80
2023-06-21T07:18:54.043Z,13.43
2023-06-21T07:21:22.435Z,13.15
2023-06-21T07:23:51.519Z,12.10
2023-06-21T07:26:18.432Z,12.93
2023-06-21T07:28:45.791Z,12.50
2023-06-21T07:31:12.754Z,13.88
2023-06-21T07:33:39.998Z,16.00
2023-06-21T07:36:07.004Z,14.63
2023-06-21T07:38:34.325Z,16.73
2023-06-21T07:41:01.217Z,18.90
2023-06-21T07:43:28.422Z,16.13
2023-06-21T07:46:10.472Z,14.45
2023-06-21T07:48:42.080Z,13.10
2023-06-21T07:51:08.991Z,14.52
2023-06-21T07:53:36.325Z,16.53
2023-06-21T07:56:03.272Z,40.60
2023-06-21T07:58:30.611Z,20.52
2023-06-21T08:00:57.499Z,19.50
2023-06-21T08:03:24.744Z,10.68
2023-06-21T08:05:51.594Z,13.37
2023-06-21T08:08:21.381Z,12.82
2023-06-21T08:10:48.324Z,9.23
2023-06-21T08:13:19.898Z,9.60
2023-06-21T08:15:46.803Z,11.23
2023-06-21T08:18:14.814Z,14.47
2023-06-21T08:20:42.326Z,10.48
2023-06-21T08:23:10.001Z,7.63
2023-06-21T08:25:36.913Z,6.25
2023-06-21T08:28:05.079Z,10.35
2023-06-21T08:30:32.026Z,10.33
2023-06-21T08:32:59.241Z,11.82
2023-06-21T08:35:26.256Z,9.68
2023-06-21T08:37:57.535Z,11.50
2023-06-21T08:40:25.996Z,12.23
2023-06-21T08:42:53.796Z,10.40
2023-06-21T08:45:20.923Z,9.00
2023-06-21T08:47:49.080Z,7.85
2023-06-21T08:50:17.894Z,10.30
2023-06-21T08:52:45.717Z,9.77
2023-06-21T08:55:13.813Z,10.80
2023-06-21T08:57:53.262Z,13.07
2023-06-21T09:00:24.346Z,10.85
2023-06-21T09:02:54.593Z,10.40
2023-06-21T09:05:27.621Z,8.77
2023-06-21T09:07:55.387Z,16.03
2023-06-21T09:10:22.684Z,7.85
2023-06-21T09:12:51.894Z,6.50
2023-06-21T09:15:19.583Z,8.93
2023-06-21T09:17:47.948Z,7.93
2023-06-21T09:20:14.849Z,9.37
2023-06-21T09:22:42.092Z,7.28
2023-06-21T09:25:09.119Z,10.52
2023-06-21T09:27:36.308Z,7.40
2023-06-21T09:30:16.855Z,9.13
2023-06-21T09:32:50.962Z,7.77
2023-06-21T09:35:17.889Z,12.50
2023-06-21T09:37:45.896Z,13.40
2023-06-21T09:40:14.922Z,9.18
2023-06-21T09:42:42.628Z,11.95
2023-06-21T09:45:10.377Z,11.53
2023-06-21T09:47:37.683Z,9.02
2023-06-21T09:50:08.044Z,11.70
2023-06-21T09:52:35.627Z,13.05
2023-06-21T09:55:02.903Z,15.07
2023-06-21T09:57:31.255Z,12.63
2023-06-21T09:59:59.840Z,13.85
2023-06-21T10:02:27.869Z,16.45
2023-06-21T10:04:58.044Z,10.55
2023-06-21T10:07:27.813Z,18.02
2023-06-21T10:09:55.422Z,10.83
2023-06-21T10:12:23.372Z,10.82
2023-06-21T10:14:52.000Z,11.48
2023-06-21T10:17:19.439Z,14.88
2023-06-21T10:19:46.806Z,13.63
2023-06-21T10:22:21.568Z,10.80
2023-06-21T10:24:52.190Z,14.15
2023-06-21T10:27:21.101Z,13.05
2023-06-21T10:29:55.500Z,12.50
2023-06-21T10:32:23.101Z,10.57
2023-06-21T10:35:00.287Z,17.13
2023-06-21T10:37:33.365Z,17.00
2023-06-21T10:40:10.534Z,16.65
2023-06-21T10:42:39.115Z,10.85
2023-06-21T10:45:06.335Z,16.00
2023-06-21T10:47:34.245Z,12.40
2023-06-21T10:50:02.389Z,11.25
2023-06-21T10:52:30.733Z,15.27
2023-06-21T10:54:58.800Z,14.32
2023-06-21T10:57:27.223Z,11.70
2023-06-21T11:00:14.415Z,17.10
2023-06-21T11:02:41.719Z,15.90
2023-06-21T11:05:19.332Z,13.52
2023-06-21T11:07:54.680Z,12.50
2023-06-21T11:10:22.641Z,13.57
2023-06-21T11:12:55.184Z,12.23
2023-06-21T11:15:22.918Z,15.52
2023-06-21T11:18:10.587Z,12.07
2023-06-21T11:20:44.946Z,14.25
2023-06-21T11:23:15.369Z,13.20
2023-06-21T11:25:49.570Z,13.13
2023-06-21T11:28:26.673Z,11.55
2023-06-21T11:31:02.888Z,14.18
2023-06-21T11:33:31.119Z,12.27
2023-06-21T11:36:07.804Z,14.70
2023-06-21T11:38:35.724Z,11.47
2023-06-21T11:41:03.774Z,15.13
2023-06-21T11:43:30.965Z,14.68
2023-06-21T11:45:59.178Z,13.13
2023-06-21T11:48:26.408Z,12.02
2023-06-21T11:50:53.822Z,15.00
2023-06-21T11:53:31.814Z,12.93
2023-06-21T11:55:59.675Z,12.85
2023-06-21T11:58:27.035Z,14.35
2023-06-21T12:00:54.477Z,13.85
2023-06-21T12:03:23.288Z,12.30
2023-06-21T12:05:51.805Z,12.23
2023-06-21T12:08:20.017Z,12.57
2023-06-21T12:10:47.391Z,10.85
2023-06-21T12:13:15.628Z,11.20
2023-06-21T12:15:52.367Z,10.40
2023-06-21T12:18:20.546Z,10.88
2023-06-21T12:20:47.437Z,10.00
2023-06-21T12:23:14.706Z,10.35
2023-06-21T12:25:42.605Z,8.93
2023-06-21T12:28:10.136Z,8.60
2023-06-21T12:30:55.790Z,7.53
2023-06-21T12:33:31.894Z,6.43
2023-06-21T12:36:25.362Z,11.13
2023-06-21T12:38:52.543Z,8.80
2023-06-21T12:41:20.630Z,9.63
2023-06-21T12:43:49.779Z,9.00
2023-06-21T12:46:17.015Z,7.53
2023-06-21T12:48:45.508Z,9.18
2023-06-21T12:51:19.626Z,7.57
2023-06-21T12:53:46.892Z,8.90
2023-06-21T12:56:14.474Z,10.35
2023-06-21T12:58:41.688Z,7.90
2023-06-21T13:01:08.614Z,8.73
2023-06-21T13:03:36.784Z,10.07
2023-06-21T13:06:05.493Z,9.83
2023-06-21T13:08:35.865Z,9.30
2023-06-21T13:11:03.124Z,8.32
2023-06-21T13:13:30.410Z,7.75
2023-06-21T13:15:59.921Z,7.70
2023-06-21T13:18:28.627Z,8.37
2023-06-21T13:20:59.364Z,9.63
2023-06-21T13:23:27.054Z,9.07
2023-06-21T13:25:54.880Z,9.27
2023-06-21T13:28:23.624Z,11.65
2023-06-21T13:30:51.516Z,8.23
2023-06-21T13:33:18.841Z,10.02
2023-06-21T13:35:45.799Z,10.32
2023-06-21T13:38:15.715Z,11.25
2023-06-21T13:40:43.611Z,11.43
2023-06-21T13:43:10.854Z,8.03
2023-06-21T13:45:37.821Z,9.68
2023-06-21T13:48:05.829Z,10.23
2023-06-21T13:50:33.131Z,12.88
2023-06-21T13:53:00.510Z,10.02
2023-06-21T13:55:27.392Z,9.17
2023-06-21T13:57:54.618Z,9.00
2023-06-21T14:00:22.405Z,11.02
2023-06-21T14:02:52.488Z,8.20
2023-06-21T14:05:20.951Z,6.90
2023-06-21T14:07:48.540Z,13.57
2023-06-21T14:10:15.486Z,9.95
2023-06-21T14:12:43.358Z,13.98
2023-06-21T14:15:11.040Z,17.05
2023-06-21T14:17:39.969Z,24.20
2023-06-21T14:20:08.656Z,15.13
2023-06-21T14:22:36.011Z,16.20
2023-06-21T14:25:04.284Z,12.02
2023-06-21T14:27:32.199Z,21.27
2023-06-21T14:30:02.850Z,18.92
2023-06-21T14:32:31.146Z,23.07
2023-06-21T14:34:58.193Z,14.93
2023-06-21T14:37:28.291Z,12.23
2023-06-21T14:39:56.232Z,10.05
2023-06-21T14:42:24.188Z,12.05
2023-06-21T14:44:51.518Z,10.40
2023-06-21T14:47:18.974Z,10.65
2023-06-21T14:49:48.450Z,9.07
2023-06-21T14:52:17.136Z,11.48
2023-06-21T14:54:44.286Z,13.60
2023-06-21T14:57:12.656Z,12.90
2023-06-21T14:59:41.255Z,10.95
2023-06-21T15:02:10.713Z,9.85
2023-06-21T15:04:37.858Z,9.10
2023-06-21T15:07:06.252Z,9.85
2023-06-21T15:09:33.128Z,10.10
2023-06-21T15:12:01.289Z,12.85
2023-06-21T15:14:28.636Z,12.82
2023-06-21T15:16:57.578Z,10.10
2023-06-21T15:19:25.928Z,8.85
2023-06-21T15:21:53.780Z,11.73
2023-06-21T15:24:20.739Z,10.52
2023-06-21T15:26:47.994Z,12.95
2023-06-21T15:29:14.984Z,11.20
2023-06-21T15:31:42.699Z,10.82
2023-06-21T15:34:11.089Z,9.10
2023-06-21T15:36:39.025Z,12.18
2023-06-21T15:39:06.330Z,9.57
2023-06-21T15:41:33.660Z,11.30
2023-06-21T15:44:01.190Z,11.13
2023-06-21T15:46:29.525Z,12.47
2023-06-21T15:48:57.574Z,11.65
2023-06-21T15:51:25.749Z,9.88
2023-06-21T15:53:54.447Z,9.27
2023-06-21T15:56:21.713Z,11.20
2023-06-21T15:58:48.640Z,9.60
2023-06-21T16:01:16.481Z,9.07
2023-06-21T16:03:45.592Z,12.18
2023-06-21T16:06:13.104Z,9.55
2023-06-21T16:08:39.962Z,9.80
2023-06-21T16:11:07.522Z,11.70
2023-06-21T16:13:43.480Z,10.73
2023-06-21T16:16:14.571Z,6.95
2023-06-21T16:18:41.594Z,9.07
2023-06-21T16:21:09.021Z,9.38
2023-06-21T16:23:35.931Z,10.37
2023-06-21T16:26:03.697Z,10.68
2023-06-21T16:28:30.949Z,10.80
2023-06-21T16:30:58.284Z,12.05
2023-06-21T16:33:25.338Z,11.85
2023-06-21T16:35:52.685Z,14.70
2023-06-21T16:38:22.332Z,9.93
2023-06-21T16:40:49.678Z,10.38
2023-06-21T16:43:17.214Z,7.55
2023-06-21T16:45:44.886Z,9.50
2023-06-21T16:48:12.027Z,11.53
2023-06-21T16:50:39.305Z,10.65
2023-06-21T16:53:06.267Z,9.50
2023-06-21T16:55:33.555Z,10.68
2023-06-21T16:58:00.636Z,10.75
2023-06-21T17:00:28.962Z,8.10
2023-06-21T17:02:57.432Z,11.18
2023-06-21T17:05:25.617Z,12.48
2023-06-21T17:07:53.330Z,8.45
2023-06-21T17:10:20.750Z,8.23
2023-06-21T17:12:47.639Z,10.53
2023-06-21T17:15:15.023Z,9.18
2023-06-21T17:17:43.043Z,9.05
2023-06-21T17:20:10.815Z,6.57
2023-06-21T17:22:38.324Z,10.25
2023-06-21T17:25:05.779Z,8.03
2023-06-21T17:27:32.682Z,7.68
2023-06-21T17:29:59.916Z,8.85
2023-06-21T17:32:27.258Z,8.45
2023-06-21T17:34:55.024Z,11.85
2023-06-21T17:37:21.968Z,11.03
2023-06-21T17:39:49.250Z,10.98
2023-06-21T17:42:16.278Z,10.73
2023-06-21T17:44:43.600Z,11.77
2023-06-21T17:47:12.229Z,8.85
2023-06-21T17:49:42.470Z,10.67
2023-06-21T17:52:09.417Z,9.18
2023-06-21T17:54:38.090Z,8.40
2023-06-21T17:57:05.929Z,9.80
2023-06-21T17:59:33.193Z,8.07
2023-06-21T18:02:00.229Z,7.77
2023-06-21T18:04:27.480Z,10.50
2023-06-21T18:06:54.531Z,9.40
2023-06-21T18:09:22.078Z,11.52
2023-06-21T18:11:49.118Z,11.80
2023-06-21T18:14:16.996Z,11.37
2023-06-21T18:16:43.852Z,12.38
2023-06-21T18:19:11.096Z,8.70
2023-06-21T18:21:37.967Z,13.50
2023-06-21T18:24:09.255Z,13.45
2023-06-21T18:26:36.295Z,11.53
2023-06-21T18:29:03.640Z,12.70
2023-06-21T18:31:30.724Z,9.52
2023-06-21T18:33:58.051Z,10.60
2023-06-21T18:36:25.308Z,8.77
2023-06-21T18:38:53.130Z,9.20
2023-06-21T18:41:20.090Z,8.07
2023-06-21T18:43:47.352Z,10.98
2023-06-21T18:46:14.190Z,8.68
2023-06-21T18:48:41.667Z,11.10
2023-06-21T18:51:08.900Z,14.47
2023-06-21T18:53:36.126Z,14.02
2023-06-21T18:56:03.175Z,18.83
2023-06-21T18:58:30.354Z,18.67
2023-06-21T19:00:57.282Z,17.55
2023-06-21T19:03:24.816Z,17.30
2023-06-21T19:05:51.917Z,15.32
2023-06-21T19:08:19.243Z,12.82
2023-06-21T19:10:46.733Z,13.13
2023-06-21T19:13:15.759Z,18.60
2023-06-21T19:15:42.827Z,18.37
2023-06-21T19:18:10.199Z,22.40
2023-06-21T19:20:37.158Z,20.48
2023-06-21T19:23:04.392Z,19.63
2023-06-21T19:25:31.520Z,19.92
2023-06-21T19:27:59.345Z,15.27
2023-06-21T19:30:26.531Z,11.77
2023-06-21T19:32:53.979Z,16.48
2023-06-21T19:35:22.510Z,12.82
2023-06-21T19:37:49.940Z,12.95
2023-06-21T19:40:17.021Z,15.50
2023-06-21T19:42:45.607Z,15.00
2023-06-21T19:45:12.965Z,15.43
2023-06-21T19:47:40.384Z,20.00
2023-06-21T19:50:07.613Z,17.88
2023-06-21T19:52:35.463Z,14.53
2023-06-21T19:55:02.530Z,16.25
2023-06-21T19:57:30.901Z,19.65
2023-06-21T19:59:57.890Z,16.20
2023-06-21T20:02:25.393Z,18.38
2023-06-21T20:04:53.904Z,18.13
2023-06-21T20:07:20.659Z,17.73
2023-06-21T20:09:48.051Z,24.77
2023-06-21T20:12:15.649Z,19.42
2023-06-21T20:14:42.801Z,19.23
2023-06-21T20:17:10.095Z,25.87
2023-06-21T20:19:37.534Z,16.63
2023-06-21T20:22:04.480Z,14.50
2023-06-21T20:24:31.733Z,19.00
2023-06-21T20:26:58.697Z,22.65
2023-06-21T20:29:26.148Z,19.10
2023-06-21T20:31:52.990Z,15.48
2023-06-21T20:34:20.297Z,16.52
2023-06-21T20:36:47.165Z,17.85
2023-06-21T20:39:17.454Z,15.73
2023-06-21T20:41:45.866Z,13.83
2023-06-21T20:44:14.501Z,12.55
2023-06-21T20:46:42.079Z,14.32
2023-06-21T20:49:09.326Z,13.63
2023-06-21T20:51:38.401Z,19.50
2023-06-21T20:54:12.446Z,16.07
2023-06-21T20:56:39.819Z,20.90
2023-06-21T20:59:07.446Z,17.63
2023-06-21T21:01:39.833Z,18.00
2023-06-21T21:04:08.643Z,15.48
2023-06-21T21:06:36.167Z,19.77
2023-06-21T21:09:03.939Z,14.60
2023-06-21T21:11:32.011Z,21.85
2023-06-21T21:14:01.684Z,18.67
2023-06-21T21:16:29.088Z,20.00
2023-06-21T21:18:56.320Z,21.43
2023-06-21T21:21:23.271Z,16.83
2023-06-21T21:23:52.115Z,19.23
2023-06-21T21:26:19.340Z,17.02
2023-06-21T21:28:46.562Z,13.63
2023-06-21T21:31:14.021Z,21.20
2023-06-21T21:33:42.177Z,20.75
2023-06-21T21:36:09.283Z,21.98
2023-06-21T21:38:37.929Z,18.40
2023-06-21T21:41:05.365Z,18.70
2023-06-21T21:43:32.591Z,21.30
2023-06-21T21:45:59.502Z,20.38
2023-06-21T21:48:26.904Z,20.20
2023-06-21T21:50:54.023Z,22.65
2023-06-21T21:53:21.373Z,25.48
2023-06-21T21:55:50.976Z,20.90
2023-06-21T21:58:18.328Z,22.20
2023-06-21T22:00:46.429Z,18.15
2023-06-21T22:03:13.957Z,22.92
2023-06-21T22:05:41.126Z,22.88
2023-06-21T22:08:08.613Z,18.70
2023-06-21T22:10:38.478Z,17.77
2023-06-21T22:13:11.542Z,20.73
2023-06-21T22:15:50.651Z,15.88
2023-06-21T22:18:26.646Z,21.33
2023-06-21T22:20:58.385Z,19.93
2023-06-21T22:23:30.607Z,17.48
2023-06-21T22:25:58.274Z,15.82
2023-06-21T22:28:25.502Z,17.25
2023-06-21T22:30:52.418Z,22.73
2023-06-21T22:33:20.127Z,16.90
2023-06-21T22:35:47.893Z,18.42
2023-06-21T22:38:15.097Z,25.08
2023-06-21T22:40:41.982Z,19.55
2023-06-21T22:43:09.266Z,19.92
2023-06-21T22:45:36.129Z,18.23
2023-06-21T22:48:08.198Z,18.75
2023-06-21T22:50:35.468Z,15.90
2023-06-21T22:53:02.819Z,20.95
2023-06-21T22:55:29.698Z,20.98
2023-06-21T22:57:58.477Z,21.37
2023-06-21T23:00:25.442Z,20.17
2023-06-21T23:02:53.366Z,22.85
2023-06-21T23:05:21.014Z,18.98
2023-06-21T23:07:48.343Z,17.52
2023-06-21T23:10:15.223Z,21.73
2023-06-21T23:12:46.091Z,20.17
2023-06-21T23:15:15.534Z,22.02
2023-06-21T23:17:45.968Z,21.52
2023-06-21T23:20:14.336Z,18.75
2023-06-21T23:22:42.610Z,18.57
2023-06-21T23:25:12.527Z,24.00
2023-06-21T23:27:44.458Z,21.50
2023-06-21T23:30:20.609Z,21.13
2023-06-21T23:32:59.609Z,17.70
2023-06-21T23:35:26.472Z,20.40
2023-06-21T23:37:55.761Z,20.17
2023-06-21T23:40:22.770Z,17.70
2023-06-21T23:42:53.534Z,14.88
2023-06-21T23:45:20.917Z,19.80
2023-06-21T23:47:48.302Z,21.13
2023-06-21T23:50:15.340Z,19.40
2023-06-21T23:52:42.596Z,17.98
2023-06-21T23:55:09.892Z,22.83
2023-06-21T23:57:37.148Z,22.73
